FYRU

Rundu Airport

Rundu, Namibia
TAF FYRU 200800Z 2009/2018 15011KT 9999 FEW025 SCT040TCU TEMPO 2011/2015 -TSRA FEW030CB SCT040TCU
Issued Valid From Valid To
Jan-20 @ 08:00 UTC
(3 hours ago)
Jan-20 @ 09:00 UTC
(2 hours ago)
Jan-20 @ 18:00 UTC
(in 7 hours)
Jan-20 @ 09:00 to Jan-20 @ 18:00
TAF FYRU 200800Z 2009/2018 15011KT 9999 FEW025 SCT040TCU
Wind Visibility Clouds
150° at 11 knots 10,000+ meters
  • Few at 2,500' AGL
  • Scattered at 4,000' AGL
Temporary Jan-20 @ 11:00 to Jan-20 @ 15:00
TEMPO 2011/2015 -TSRA FEW030CB SCT040TCU
Clouds Conditions
  • Few at 3,000' AGL
  • Scattered at 4,000' AGL
  • Light Thunderstorm
  • Light Rain
TAF FYRU 200800Z 2009/2018 15011KT 9999 FEW025 SCT040TCU TEMPO 2011/2015 -TSRA FEW030CB SCT040TCU
Issued Jan-20 @ 08:00 UTC
(3 hours ago)
Valid From Jan-20 @ 09:00 UTC
(2 hours ago)
Valid To Jan-20 @ 18:00 UTC
(in 7 hours)
Jan-20 @ 09:00 - Jan-20 @ 18:00
Wind Visibility
150° at 11 knots 10,000+ meters
Clouds
  • Few at 2,500' AGL
  • Scattered at 4,000' AGL
Temporary Jan-20 @ 11:00 - Jan-20 @ 15:00
Clouds
  • Few at 3,000' AGL
  • Scattered at 4,000' AGL
Conditions
  • Light Thunderstorm
  • Light Rain